Time;durP1;ratioP1;P1;durP2;ratioP2;P2;SDS_P1;SDS_P2;PMS_P1;PMS_P2;Temp;Humidity;BMP_temperature;BMP_pressure;BME280_temperature;BME280_humidity;BME280_pressure;Samples;Min_cycle;Max_cycle;Signal;HPM_P1;HPM_P2
2021/09/24 00:07:12;;;;;;;5.5;3.6;;;;;;;15.4;100;97649.08;;;;
2021/09/24 00:17:12;;;;;;;8.1;3.9;;;;;;;15.32;100;97641.94;;;;
2021/09/24 00:27:12;;;;;;;5.9;3.2;;;;;;;15.27;100;97622.47;;;;
2021/09/24 00:37:11;;;;;;;6.4;3.8;;;;;;;15.26;100;97631.75;;;;
2021/09/24 00:47:11;;;;;;;9;4.3;;;;;;;15.56;100;97652.48;;;;
2021/09/24 00:57:11;;;;;;;7.8;4.1;;;;;;;15.65;100;97673.98;;;;
2021/09/24 01:07:11;;;;;;;8.3;3.3;;;;;;;15.51;100;97633;;;;
2021/09/24 01:17:10;;;;;;;7.5;4;;;;;;;15.48;100;97626.34;;;;
2021/09/24 01:27:10;;;;;;;4.9;2.9;;;;;;;15.48;100;97629.05;;;;
2021/09/24 01:37:10;;;;;;;7.3;3.5;;;;;;;15.65;100;97622.37;;;;
2021/09/24 01:47:09;;;;;;;5.2;3.6;;;;;;;15.78;100;97612.88;;;;
2021/09/24 01:57:11;;;;;;;6.8;3;;;;;;;15.92;100;97610.38;;;;
2021/09/24 02:07:09;;;;;;;6.8;3.7;;;;;;;16.01;100;97610.88;;;;
2021/09/24 02:17:08;;;;;;;7.5;3.4;;;;;;;16.1;100;97641.29;;;;
2021/09/24 02:27:08;;;;;;;5;2.7;;;;;;;16.1;100;97641.29;;;;
2021/09/24 02:37:08;;;;;;;8.4;4.1;;;;;;;16.16;100;97649.93;;;;
2021/09/24 02:47:08;;;;;;;8.9;4.3;;;;;;;16.01;100;97678.83;;;;
2021/09/24 02:57:07;;;;;;;6.4;3.8;;;;;;;15.59;100;97718.86;;;;
2021/09/24 03:07:07;;;;;;;10.9;2.8;;;;;;;15.17;100;97739.77;;;;
2021/09/24 03:17:07;;;;;;;8.6;2.9;;;;;;;14.05;100;97759.34;;;;
2021/09/24 03:27:06;;;;;;;4.2;2;;;;;;;13.6;100;97769.79;;;;
2021/09/24 03:37:06;;;;;;;3.4;1.1;;;;;;;13.36;100;97767.2;;;;
2021/09/24 03:47:05;;;;;;;3.8;1.7;;;;;;;13.33;100;97782.19;;;;
2021/09/24 03:57:04;;;;;;;3.9;1.6;;;;;;;13.25;100;97796.67;;;;
2021/09/24 04:07:05;;;;;;;3.4;1.1;;;;;;;13.02;100;97793.66;;;;
2021/09/24 04:17:03;;;;;;;4.8;1.6;;;;;;;12.91;100;97827.7;;;;
2021/09/24 04:27:03;;;;;;;3.2;1.6;;;;;;;12.86;100;97827.16;;;;
2021/09/24 04:37:02;;;;;;;9.7;4.3;;;;;;;12.76;100;97833.83;;;;
2021/09/24 04:47:01;;;;;;;3.4;1.4;;;;;;;12.78;100;97838.88;;;;
2021/09/24 04:57:01;;;;;;;7.3;2.5;;;;;;;12.77;100;97859.75;;;;
2021/09/24 05:07:00;;;;;;;7.9;2.1;;;;;;;12.63;100;97851.19;;;;
2021/09/24 05:16:59;;;;;;;4.4;2.2;;;;;;;12.7;100;97851.41;;;;
2021/09/24 05:27:00;;;;;;;5.3;2.3;;;;;;;12.63;100;97878.22;;;;
2021/09/24 05:36:58;;;;;;;6.9;2.3;;;;;;;12.68;100;97888.8;;;;
2021/09/24 05:46:57;;;;;;;6.4;1.9;;;;;;;12.73;100;97885.88;;;;
2021/09/24 05:56:57;;;;;;;6.7;2.5;;;;;;;12.89;100;97894.09;;;;
2021/09/24 06:06:56;;;;;;;3.9;1.4;;;;;;;12.95;100;97909.75;;;;
2021/09/24 06:16:55;;;;;;;10.7;2.2;;;;;;;12.95;100;97933.3;;;;
2021/09/24 06:26:55;;;;;;;5.5;2.4;;;;;;;12.91;100;97949.41;;;;
2021/09/24 06:36:54;;;;;;;4.5;2.7;;;;;;;12.89;100;97984.13;;;;
2021/09/24 06:46:53;;;;;;;5.7;2.9;;;;;;;12.86;100;97990.22;;;;
2021/09/24 06:56:53;;;;;;;4.8;2.1;;;;;;;12.92;100;98001.59;;;;
2021/09/24 07:06:52;;;;;;;5.3;2.4;;;;;;;12.88;100;98001.47;;;;
2021/09/24 07:16:51;;;;;;;7.1;2.2;;;;;;;12.83;100;98009.03;;;;
2021/09/24 07:26:51;;;;;;;8.3;3.2;;;;;;;13.18;100;98012.14;;;;
2021/09/24 07:36:50;;;;;;;5.3;2.5;;;;;;;13.26;100;98030.95;;;;
2021/09/24 07:46:51;;;;;;;7.5;3.4;;;;;;;13.48;100;98035.13;;;;
2021/09/24 07:56:49;;;;;;;5.4;3.3;;;;;;;13.48;100;98033.22;;;;
2021/09/24 08:06:49;;;;;;;12;3.8;;;;;;;13.69;100;98032.28;;;;
2021/09/24 08:16:48;;;;;;;9.2;4.2;;;;;;;13.95;100;98038.88;;;;
2021/09/24 08:26:48;;;;;;;9.1;3.1;;;;;;;14.14;100;98043.7;;;;
2021/09/24 08:36:47;;;;;;;7.9;2.9;;;;;;;14.07;100;98065.17;;;;
2021/09/24 08:46:47;;;;;;;6.6;3.4;;;;;;;14.12;100;98073.08;;;;
2021/09/24 08:56:48;;;;;;;6.8;3;;;;;;;14.15;100;98096.77;;;;
2021/09/24 09:06:46;;;;;;;10.6;3.6;;;;;;;14.14;100;98106.03;;;;
2021/09/24 09:16:46;;;;;;;10.3;3.4;;;;;;;13.82;100;98110.47;;;;
2021/09/24 09:26:45;;;;;;;10.4;4.1;;;;;;;14.23;100;98122.94;;;;
2021/09/24 09:36:45;;;;;;;8.4;2.9;;;;;;;13.98;100;98148.52;;;;
2021/09/24 09:46:44;;;;;;;6.9;3.7;;;;;;;14.55;100;98140.17;;;;
2021/09/24 09:56:46;;;;;;;8.3;3.5;;;;;;;14.57;100;98146.05;;;;
2021/09/24 10:06:44;;;;;;;6.1;3.3;;;;;;;15.5;100;98159.08;;;;
2021/09/24 10:16:43;;;;;;;10.9;3.2;;;;;;;15.19;100;98178.02;;;;
2021/09/24 10:26:43;;;;;;;5.7;3;;;;;;;15.06;100;98181.94;;;;
2021/09/24 10:36:44;;;;;;;4.9;1.5;;;;;;;15.14;100;98191.83;;;;
2021/09/24 10:46:44;;;;;;;7.8;2.6;;;;;;;15.09;100;98195.6;;;;
2021/09/24 10:56:44;;;;;;;7.8;2.7;;;;;;;15.14;100;98199.97;;;;
2021/09/24 11:06:43;;;;;;;6.9;2.7;;;;;;;15;100;98205.8;;;;
2021/09/24 11:26:41;;;;;;;4.4;1.9;;;;;;;15.17;100;98193.08;;;;
2021/09/24 11:36:40;;;;;;;3.9;2;;;;;;;15.34;100;98207.11;;;;
2021/09/24 11:46:40;;;;;;;4.3;2.2;;;;;;;15.55;100;98193.33;;;;
2021/09/24 11:56:40;;;;;;;5.8;2.5;;;;;;;15.75;100;98191.52;;;;
2021/09/24 12:06:39;;;;;;;4.6;1.8;;;;;;;15.9;100;98202.37;;;;
2021/09/24 12:16:41;;;;;;;7.3;2.5;;;;;;;16.47;100;98211.86;;;;
2021/09/24 12:26:39;;;;;;;7.7;3.2;;;;;;;16.9;100;98198.03;;;;
2021/09/24 12:36:39;;;;;;;6.1;2.9;;;;;;;16.01;100;98195.27;;;;
2021/09/24 12:46:39;;;;;;;12.6;4.1;;;;;;;15.35;100;98200.55;;;;
2021/09/24 12:56:38;;;;;;;6.3;3.2;;;;;;;15.41;100;98226.3;;;;
2021/09/24 13:06:38;;;;;;;7.1;2.8;;;;;;;15.74;100;98214.38;;;;
2021/09/24 13:16:38;;;;;;;4.6;2;;;;;;;16.12;100;98225.42;;;;
2021/09/24 13:26:38;;;;;;;6;2.7;;;;;;;16.21;100;98223.3;;;;
2021/09/24 13:36:37;;;;;;;6.5;2.8;;;;;;;15.79;100;98222.28;;;;
2021/09/24 13:46:37;;;;;;;5.5;2.6;;;;;;;15.35;100;98230.42;;;;
2021/09/24 13:56:37;;;;;;;7.3;2.8;;;;;;;15.27;100;98227.88;;;;
2021/09/24 14:06:37;;;;;;;7.7;2.9;;;;;;;15.29;100;98223.66;;;;
2021/09/24 14:16:36;;;;;;;4.9;2.1;;;;;;;15.83;100;98237.52;;;;
2021/09/24 14:26:36;;;;;;;7.1;2.5;;;;;;;15.64;100;98240.14;;;;
2021/09/24 14:36:36;;;;;;;6.4;3.2;;;;;;;15.85;100;98239.9;;;;
2021/09/24 14:46:36;;;;;;;7.4;3.3;;;;;;;15.6;100;98237.34;;;;
2021/09/24 14:56:35;;;;;;;8.6;3.6;;;;;;;15.53;100;98233.64;;;;
2021/09/24 15:06:35;;;;;;;7.3;2.7;;;;;;;15.41;100;98236.41;;;;
2021/09/24 15:16:35;;;;;;;10.9;4.4;;;;;;;15.2;100;98241.25;;;;
2021/09/24 15:26:34;;;;;;;9.1;4.1;;;;;;;16.03;100;98241.14;;;;
2021/09/24 15:36:34;;;;;;;11.2;4.9;;;;;;;16.86;100;98248.12;;;;
2021/09/24 15:46:34;;;;;;;7.5;3.6;;;;;;;16.51;100;98258.98;;;;
2021/09/24 15:56:34;;;;;;;8.8;3.7;;;;;;;16.92;100;98261.09;;;;
2021/09/24 16:06:34;;;;;;;6.5;3.3;;;;;;;16.32;100;98251.53;;;;
2021/09/24 16:16:34;;;;;;;7.7;3.2;;;;;;;15.15;100;98263.99;;;;
2021/09/24 16:26:33;;;;;;;12.7;5.1;;;;;;;14.61;100;98277.14;;;;
2021/09/24 16:36:33;;;;;;;9.8;4.9;;;;;;;13.93;100;98286.9;;;;
2021/09/24 16:46:33;;;;;;;13;7;;;;;;;13.31;100;98293.27;;;;
2021/09/24 16:56:32;;;;;;;13.4;6.1;;;;;;;12.86;100;98305.85;;;;
2021/09/24 17:06:31;;;;;;;12.5;6.5;;;;;;;12.21;100;98314.48;;;;
2021/09/24 17:16:31;;;;;;;13.5;7.1;;;;;;;11.97;100;98329.36;;;;
2021/09/24 17:26:30;;;;;;;13.4;8.2;;;;;;;11.82;100;98324.46;;;;
2021/09/24 17:36:29;;;;;;;12.3;8.7;;;;;;;11.68;100;98350.02;;;;
2021/09/24 17:46:29;;;;;;;12.8;9.2;;;;;;;11.54;100;98369.89;;;;
2021/09/24 17:56:28;;;;;;;14.9;9.5;;;;;;;11.31;100;98383.87;;;;
2021/09/24 18:06:28;;;;;;;14.7;8.8;;;;;;;11.06;100;98404.3;;;;
2021/09/24 18:16:26;;;;;;;16.6;10.8;;;;;;;10.9;100;98412.02;;;;
2021/09/24 18:26:25;;;;;;;13.2;10;;;;;;;10.71;100;98433.07;;;;
2021/09/24 18:36:24;;;;;;;13.9;8.8;;;;;;;10.66;100;98435.89;;;;
2021/09/24 18:46:23;;;;;;;15.4;9.2;;;;;;;10.73;100;98438.13;;;;
2021/09/24 18:56:22;;;;;;;13.3;8.2;;;;;;;10.78;100;98443.4;;;;
2021/09/24 19:06:21;;;;;;;11.8;8;;;;;;;10.93;100;98445.67;;;;
2021/09/24 19:16:21;;;;;;;14;9;;;;;;;11.31;100;98468.3;;;;
2021/09/24 19:26:20;;;;;;;11.7;6.9;;;;;;;11.58;100;98478.02;;;;
2021/09/24 19:36:19;;;;;;;15;7;;;;;;;11.92;100;98485.36;;;;
2021/09/24 19:46:18;;;;;;;11.8;6.1;;;;;;;12.23;100;98493.27;;;;
2021/09/24 19:56:17;;;;;;;7.8;4.9;;;;;;;12.49;100;98500.23;;;;
2021/09/24 20:06:16;;;;;;;8.4;5.6;;;;;;;12.76;100;98509.06;;;;
2021/09/24 20:16:16;;;;;;;7.2;4.7;;;;;;;12.96;100;98513.75;;;;
2021/09/24 20:26:15;;;;;;;7.5;5.3;;;;;;;13.18;100;98518.16;;;;
2021/09/24 20:36:14;;;;;;;7.3;4.1;;;;;;;13.37;100;98521.23;;;;
2021/09/24 20:46:14;;;;;;;9;4.4;;;;;;;13.54;100;98519.21;;;;
2021/09/24 20:56:13;;;;;;;13.6;4.7;;;;;;;13.66;100;98523.92;;;;
2021/09/24 21:06:12;;;;;;;5.9;3.1;;;;;;;13.83;100;98531.94;;;;
2021/09/24 21:16:12;;;;;;;7.4;4.7;;;;;;;13.98;100;98531.35;;;;
2021/09/24 21:26:11;;;;;;;8.5;3.9;;;;;;;14.08;100;98535.58;;;;
2021/09/24 21:36:11;;;;;;;6.8;4.2;;;;;;;14.11;100;98540.33;;;;
2021/09/24 21:46:10;;;;;;;6.9;3.9;;;;;;;14.08;100;98538.28;;;;
2021/09/24 21:56:10;;;;;;;8.1;3.6;;;;;;;14.08;100;98544.5;;;;
2021/09/24 22:06:09;;;;;;;8.6;4;;;;;;;14.04;100;98540.06;;;;
2021/09/24 22:16:08;;;;;;;10.2;5.5;;;;;;;14.07;100;98542.91;;;;
2021/09/24 22:26:09;;;;;;;9.3;5;;;;;;;14.13;100;98538.86;;;;
2021/09/24 22:36:07;;;;;;;7;3.5;;;;;;;14.17;100;98540.91;;;;
2021/09/24 22:46:07;;;;;;;7.5;3.5;;;;;;;14.21;100;98552.67;;;;
2021/09/24 22:56:06;;;;;;;8.6;3.7;;;;;;;14.25;100;98553.6;;;;
2021/09/24 23:06:06;;;;;;;5.5;2.8;;;;;;;14.31;100;98553.06;;;;
2021/09/24 23:16:06;;;;;;;4.2;2.5;;;;;;;14.39;100;98556.86;;;;
2021/09/24 23:26:09;;;;;;;6;3.7;;;;;;;14.43;100;98546.94;;;;
2021/09/24 23:36:06;;;;;;;9;3.8;;;;;;;14.45;100;98547.39;;;;
2021/09/24 23:46:05;;;;;;;7.4;3.9;;;;;;;14.54;100;98545.41;;;;
2021/09/24 23:56:05;;;;;;;7.5;3.2;;;;;;;14.58;100;98551.72;;;;
